createdAt,value
2022-10-20T00:04:11.781Z,6.75
2022-10-20T00:09:14.000Z,4.97
2022-10-20T00:14:16.098Z,6.00
2022-10-20T00:19:18.243Z,3.50
2022-10-20T00:24:21.663Z,5.90
2022-10-20T00:29:23.750Z,3.80
2022-10-20T00:34:25.914Z,4.80
2022-10-20T00:39:28.161Z,5.47
2022-10-20T00:44:48.196Z,2.83
2022-10-20T00:49:51.479Z,6.22
2022-10-20T00:54:53.610Z,3.58
2022-10-20T00:59:55.803Z,4.10
2022-10-20T01:04:58.057Z,5.45
2022-10-20T01:10:00.968Z,3.65
2022-10-20T01:15:29.714Z,5.28
2022-10-20T01:21:04.450Z,6.15
2022-10-20T01:26:45.045Z,8.25
2022-10-20T01:31:58.080Z,3.40
2022-10-20T01:37:07.937Z,4.18
2022-10-20T01:42:16.456Z,4.95
2022-10-20T01:47:20.748Z,5.40
2022-10-20T01:52:24.111Z,4.72
2022-10-20T01:57:40.905Z,5.20
2022-10-20T02:02:42.945Z,3.05
2022-10-20T02:07:45.168Z,3.75
2022-10-20T02:12:54.066Z,4.82
2022-10-20T02:18:01.020Z,6.38
2022-10-20T02:23:05.919Z,4.22
2022-10-20T02:28:12.183Z,5.15
2022-10-20T02:33:17.135Z,3.95
2022-10-20T02:38:19.278Z,6.50
2022-10-20T02:43:21.453Z,7.80
2022-10-20T02:48:23.598Z,7.78
2022-10-20T02:53:26.014Z,6.72
2022-10-20T02:58:28.140Z,4.43
2022-10-20T03:03:30.591Z,9.20
2022-10-20T03:08:32.846Z,9.98
2022-10-20T03:13:35.285Z,11.35
2022-10-20T03:18:37.407Z,8.63
2022-10-20T03:23:39.623Z,8.95
2022-10-20T03:28:41.759Z,9.20
2022-10-20T03:33:43.902Z,5.88
2022-10-20T03:38:46.062Z,4.15
2022-10-20T03:43:48.203Z,5.80
2022-10-20T03:48:50.302Z,5.65
2022-10-20T03:53:52.518Z,4.32
2022-10-20T03:58:54.723Z,5.85
2022-10-20T04:03:56.975Z,4.57
2022-10-20T04:08:59.172Z,5.05
2022-10-20T04:14:01.483Z,5.30
2022-10-20T04:19:03.709Z,3.80
2022-10-20T04:24:07.381Z,4.95
2022-10-20T04:29:09.517Z,2.88
2022-10-20T04:34:11.652Z,4.13
2022-10-20T04:39:13.920Z,2.38
2022-10-20T04:44:16.173Z,5.50
2022-10-20T04:49:18.323Z,2.33
2022-10-20T04:54:20.567Z,4.38
2022-10-20T04:59:22.738Z,3.97
2022-10-20T05:04:24.891Z,1.92
2022-10-20T05:09:26.977Z,8.13
2022-10-20T05:14:29.157Z,6.35
2022-10-20T05:19:31.227Z,2.63
2022-10-20T05:24:33.460Z,2.33
2022-10-20T05:29:35.544Z,3.85
2022-10-20T05:34:37.743Z,3.38
2022-10-20T05:39:39.979Z,2.97
2022-10-20T05:44:42.086Z,2.38
2022-10-20T05:49:44.155Z,2.78
2022-10-20T05:54:46.241Z,3.72
2022-10-20T05:59:48.328Z,6.15
2022-10-20T06:04:50.379Z,2.53
2022-10-20T06:09:52.503Z,3.40
2022-10-20T06:14:54.603Z,4.03
2022-10-20T06:19:56.739Z,2.53
2022-10-20T06:24:58.883Z,2.60
2022-10-20T06:30:00.989Z,2.90
2022-10-20T06:35:03.243Z,2.72
2022-10-20T06:40:05.868Z,5.28
2022-10-20T06:45:08.599Z,3.33
2022-10-20T06:50:10.781Z,2.17
2022-10-20T06:55:12.920Z,2.10
2022-10-20T07:00:15.281Z,3.33
2022-10-20T07:05:17.478Z,2.03
2022-10-20T07:10:19.634Z,2.30
2022-10-20T07:15:21.778Z,2.67
2022-10-20T07:20:24.044Z,1.23
2022-10-20T07:25:26.271Z,3.80
2022-10-20T07:30:28.402Z,4.28
2022-10-20T07:35:30.847Z,2.05
2022-10-20T07:40:32.939Z,4.57
2022-10-20T07:45:35.218Z,3.53
2022-10-20T07:50:37.990Z,3.13
2022-10-20T07:55:40.095Z,5.18
2022-10-20T08:00:42.181Z,1.63
2022-10-20T08:05:44.277Z,3.15
2022-10-20T08:10:47.010Z,3.03
2022-10-20T08:15:49.206Z,5.35
2022-10-20T08:20:53.448Z,4.13
2022-10-20T08:25:56.511Z,3.47
2022-10-20T08:30:58.654Z,3.50
2022-10-20T08:36:10.215Z,3.03
2022-10-20T08:41:25.013Z,2.38
2022-10-20T08:46:34.892Z,2.67
2022-10-20T08:51:38.587Z,4.80
2022-10-20T08:56:40.809Z,2.63
2022-10-20T09:01:43.041Z,2.67
2022-10-20T09:06:48.234Z,4.15
2022-10-20T09:11:51.299Z,4.33
2022-10-20T09:17:00.394Z,1.10
2022-10-20T09:22:07.255Z,2.20
2022-10-20T09:27:24.941Z,2.63
2022-10-20T09:32:51.871Z,3.50
2022-10-20T09:38:00.152Z,2.92
2022-10-20T09:43:09.589Z,2.03
2022-10-20T09:48:24.002Z,4.68
2022-10-20T09:53:31.951Z,3.15
2022-10-20T09:58:38.022Z,1.77
2022-10-20T10:03:44.953Z,2.72
2022-10-20T10:08:47.875Z,2.05
2022-10-20T10:13:52.308Z,4.25
2022-10-20T10:19:03.433Z,3.50
2022-10-20T10:24:06.012Z,3.95
2022-10-20T10:29:29.973Z,2.30
2022-10-20T10:35:00.634Z,2.78
2022-10-20T10:40:14.621Z,1.27
2022-10-20T10:46:07.748Z,5.50
2022-10-20T10:51:37.567Z,1.85
2022-10-20T10:56:56.806Z,7.45
2022-10-20T11:02:01.859Z,3.55
2022-10-20T11:07:16.089Z,1.93
2022-10-20T11:12:49.051Z,4.03
2022-10-20T11:18:14.808Z,3.03
2022-10-20T11:23:53.179Z,2.90
2022-10-20T11:28:57.896Z,2.42
2022-10-20T11:34:22.842Z,1.30
2022-10-20T11:39:39.503Z,3.53
2022-10-20T11:44:44.523Z,1.10
2022-10-20T11:49:47.359Z,1.90
2022-10-20T11:55:01.603Z,1.55
2022-10-20T12:00:21.669Z,4.22
2022-10-20T12:05:42.327Z,1.98
2022-10-20T12:11:12.537Z,2.00
2022-10-20T12:16:53.432Z,2.92
2022-10-20T12:22:13.484Z,1.73
2022-10-20T12:27:18.494Z,1.77
2022-10-20T12:32:53.118Z,1.83
2022-10-20T12:38:04.307Z,4.45
2022-10-20T12:43:22.899Z,2.50
2022-10-20T12:48:25.646Z,2.88
2022-10-20T12:53:30.849Z,2.63
2022-10-20T12:58:59.915Z,1.48
2022-10-20T13:04:01.988Z,2.50
2022-10-20T13:09:04.300Z,3.20
2022-10-20T13:14:12.569Z,0.85
2022-10-20T13:19:32.699Z,2.88
2022-10-20T13:24:38.910Z,1.65
2022-10-20T13:29:48.253Z,1.85
2022-10-20T13:35:10.987Z,2.08
2022-10-20T13:40:58.579Z,2.63
2022-10-20T13:46:32.205Z,1.42
2022-10-20T13:51:49.721Z,2.15
2022-10-20T13:56:52.360Z,2.00
2022-10-20T14:01:57.996Z,1.98
2022-10-20T14:12:26.336Z,2.65
2022-10-20T14:17:28.613Z,2.20
2022-10-20T14:22:31.984Z,0.77
2022-10-20T14:27:37.011Z,1.77
2022-10-20T14:32:40.864Z,1.77
2022-10-20T14:37:51.722Z,2.15
2022-10-20T14:43:02.559Z,2.42
2022-10-20T14:48:09.580Z,2.33
2022-10-20T14:53:17.757Z,0.40
2022-10-20T14:58:38.339Z,0.43
2022-10-20T15:03:40.584Z,1.60
2022-10-20T15:08:52.694Z,2.83
2022-10-20T15:13:59.093Z,1.20
2022-10-20T15:19:30.030Z,3.42
2022-10-20T15:24:32.138Z,0.88
2022-10-20T15:29:34.415Z,0.50
2022-10-20T15:34:36.706Z,1.65
2022-10-20T15:39:38.845Z,2.17
2022-10-20T15:44:40.911Z,1.45
2022-10-20T15:49:42.958Z,1.67
2022-10-20T15:54:45.014Z,1.85
2022-10-20T15:59:47.071Z,0.40
2022-10-20T16:04:49.162Z,0.70
2022-10-20T16:09:51.272Z,1.27
2022-10-20T16:14:53.864Z,1.27
2022-10-20T16:19:55.979Z,2.33
2022-10-20T16:25:01.328Z,1.10
2022-10-20T16:30:04.786Z,1.73
2022-10-20T16:35:07.333Z,1.05
2022-10-20T16:40:10.160Z,1.00
2022-10-20T16:45:12.419Z,1.25
2022-10-20T16:50:14.583Z,1.25
2022-10-20T16:55:16.794Z,0.88
2022-10-20T17:00:18.976Z,2.25
2022-10-20T17:05:26.348Z,1.63
2022-10-20T17:10:28.875Z,4.13
2022-10-20T17:15:30.969Z,2.08
2022-10-20T17:20:38.079Z,6.57
2022-10-20T17:25:41.197Z,6.05
2022-10-20T17:30:48.830Z,6.30
2022-10-20T17:35:50.911Z,5.80
2022-10-20T17:40:53.754Z,6.15
2022-10-20T17:46:07.854Z,4.15
2022-10-20T17:51:22.582Z,3.05
2022-10-20T17:56:34.402Z,5.38
2022-10-20T18:01:39.710Z,7.55
2022-10-20T18:06:43.158Z,4.68
2022-10-20T18:11:51.687Z,7.30
2022-10-20T18:16:53.908Z,4.53
2022-10-20T18:21:56.170Z,5.72
2022-10-20T18:26:58.508Z,4.78
2022-10-20T18:32:00.651Z,4.63
2022-10-20T18:37:03.675Z,5.85
2022-10-20T18:42:05.835Z,9.93
2022-10-20T18:47:08.279Z,6.63
2022-10-20T18:52:10.433Z,7.60
2022-10-20T18:57:12.506Z,5.82
2022-10-20T19:02:14.832Z,5.68
2022-10-20T19:07:18.044Z,7.65
2022-10-20T19:12:20.423Z,7.50
2022-10-20T19:17:22.560Z,4.95
2022-10-20T19:22:28.429Z,8.15
2022-10-20T19:27:32.598Z,6.38
2022-10-20T19:32:36.462Z,5.65
2022-10-20T19:37:41.268Z,5.57
2022-10-20T19:42:43.365Z,5.95
2022-10-20T19:47:46.934Z,5.82
2022-10-20T19:52:49.025Z,8.63
2022-10-20T19:57:51.084Z,8.13
2022-10-20T20:02:53.190Z,6.13
2022-10-20T20:07:55.225Z,8.45
2022-10-20T20:12:57.316Z,6.38
2022-10-20T20:17:59.355Z,9.20
2022-10-20T20:23:01.414Z,6.95
2022-10-20T20:28:03.801Z,7.55
2022-10-20T20:33:06.082Z,7.32
2022-10-20T20:38:08.442Z,6.18
2022-10-20T20:43:10.550Z,6.00
2022-10-20T20:48:12.663Z,6.28
2022-10-20T20:53:14.805Z,5.32
2022-10-20T20:58:17.056Z,6.88
2022-10-20T21:03:19.736Z,4.93
2022-10-20T21:08:22.152Z,5.38
2022-10-20T21:13:24.262Z,6.78
2022-10-20T21:18:26.325Z,6.93
2022-10-20T21:23:28.426Z,6.63
2022-10-20T21:28:30.549Z,7.78
2022-10-20T21:33:35.159Z,5.60
2022-10-20T21:38:38.472Z,7.05
2022-10-20T21:43:43.743Z,5.68
2022-10-20T21:48:47.866Z,7.82
2022-10-20T21:53:50.282Z,6.68
2022-10-20T21:58:53.525Z,6.75
2022-10-20T22:03:56.020Z,6.18
2022-10-20T22:08:58.922Z,4.72
2022-10-20T22:14:01.773Z,5.57
2022-10-20T22:19:07.678Z,6.15
2022-10-20T22:29:13.207Z,6.10
2022-10-20T22:34:15.468Z,8.55
2022-10-20T22:39:17.810Z,5.50
2022-10-20T22:44:20.046Z,7.88
2022-10-20T22:49:23.918Z,7.03
2022-10-20T22:54:26.818Z,3.88
2022-10-20T22:59:28.999Z,5.57
2022-10-20T23:04:31.139Z,3.80
2022-10-20T23:09:33.392Z,7.28
2022-10-20T23:14:35.554Z,3.08
2022-10-20T23:19:37.683Z,7.35
2022-10-20T23:24:39.782Z,3.92
2022-10-20T23:29:41.953Z,2.80
2022-10-20T23:34:44.144Z,5.63
2022-10-20T23:39:46.775Z,3.28
2022-10-20T23:44:48.980Z,5.57
2022-10-20T23:49:51.150Z,4.38
2022-10-20T23:54:53.303Z,4.78
2022-10-20T23:59:55.399Z,6.13
